createdAt,value
2019-05-30T09:19:18.881Z,59.43
2019-05-30T09:20:18.859Z,59.66
2019-05-30T09:21:18.850Z,59.46
2019-05-30T09:22:18.842Z,59.33
2019-05-30T09:23:18.826Z,59.63
2019-05-30T09:24:18.854Z,59.33
2019-05-30T09:25:18.803Z,59.63
2019-05-30T09:26:18.792Z,59.74
2019-05-30T09:27:18.783Z,59.63
2019-05-30T09:28:18.769Z,58.90
2019-05-30T09:29:18.770Z,59.20
2019-05-30T09:30:18.746Z,59.80
2019-05-30T09:31:18.734Z,59.30
2019-05-30T09:32:18.725Z,59.50
2019-05-30T09:33:18.712Z,59.23
2019-05-30T09:34:18.710Z,59.50
2019-05-30T09:35:18.696Z,60.13
2019-05-30T09:36:18.722Z,59.60
2019-05-30T09:37:18.668Z,60.03
2019-05-30T09:38:18.658Z,59.50
2019-05-30T09:39:18.655Z,59.91
2019-05-30T09:40:18.638Z,59.10
2019-05-30T09:41:18.624Z,59.30
2019-05-30T09:42:18.615Z,60.33
2019-05-30T09:43:18.603Z,60.33
2019-05-30T09:44:18.606Z,60.84
2019-05-30T09:45:18.580Z,61.34
2019-05-30T09:46:18.571Z,61.21
2019-05-30T09:47:18.562Z,61.74
2019-05-30T09:48:18.548Z,61.85
2019-05-30T09:49:18.544Z,62.05
2019-05-30T09:50:18.525Z,61.85
2019-05-30T09:51:18.514Z,61.44
2019-05-30T09:52:18.503Z,61.61
2019-05-30T09:53:18.493Z,61.51
2019-05-30T09:54:18.490Z,61.61
2019-05-30T09:55:18.468Z,61.34
2019-05-30T09:56:18.456Z,61.41
2019-05-30T09:57:18.446Z,61.41
2019-05-30T09:58:18.438Z,61.51
2019-05-30T09:59:18.431Z,61.51
2019-05-30T10:00:18.410Z,61.61
2019-05-30T10:01:18.401Z,62.12
2019-05-30T10:02:18.391Z,61.41
2019-05-30T10:03:18.379Z,61.08
2019-05-30T10:04:18.376Z,61.49
2019-05-30T10:05:18.355Z,61.31
2019-05-30T10:06:28.876Z,60.81
2019-05-30T10:07:19.330Z,61.31
2019-05-30T10:08:18.322Z,61.69
2019-05-30T10:09:18.319Z,61.51
2019-05-30T10:10:18.299Z,61.82
2019-05-30T10:11:18.287Z,61.88
2019-05-30T10:12:18.277Z,61.79
2019-05-30T10:13:18.261Z,62.32
2019-05-30T10:14:18.258Z,62.32
2019-05-30T10:15:18.240Z,62.32
2019-05-30T10:16:18.230Z,62.29
2019-05-30T10:17:18.218Z,62.32
2019-05-30T10:18:18.205Z,62.42
2019-05-30T10:19:18.286Z,62.39
2019-05-30T10:20:18.184Z,61.88
2019-05-30T10:21:18.171Z,61.99
2019-05-30T10:22:18.163Z,62.32
2019-05-30T10:23:18.151Z,62.62
2019-05-30T10:24:18.136Z,62.39
2019-05-30T10:25:18.136Z,62.79
2019-05-30T10:26:18.115Z,63.79
2019-05-30T10:27:18.104Z,63.19
2019-05-30T10:28:18.092Z,63.19
2019-05-30T10:29:18.079Z,63.09
2019-05-30T10:30:18.077Z,63.39
2019-05-30T10:31:18.057Z,63.19
2019-05-30T10:32:18.048Z,63.29
2019-05-30T10:33:18.033Z,63.29
2019-05-30T10:34:18.024Z,63.59
2019-05-30T10:35:18.021Z,62.69
2019-05-30T10:36:20.157Z,63.19
2019-05-30T10:37:17.990Z,62.99
2019-05-30T10:38:20.102Z,62.96
2019-05-30T10:39:17.975Z,62.79
2019-05-30T10:40:17.967Z,63.09
2019-05-30T10:41:17.944Z,63.17
2019-05-30T10:42:17.932Z,62.66
2019-05-30T10:43:17.920Z,62.46
2019-05-30T10:44:17.909Z,62.89
2019-05-30T10:45:17.909Z,62.79
2019-05-30T10:46:17.886Z,63.29
2019-05-30T10:47:17.874Z,62.69
2019-05-30T10:48:20.670Z,62.76
2019-05-30T10:49:31.523Z,62.76
2019-05-30T10:50:18.847Z,63.13
2019-05-30T10:51:17.827Z,62.83
2019-05-30T10:52:17.816Z,62.63
2019-05-30T10:53:17.816Z,62.03
2019-05-30T10:54:17.791Z,61.80
2019-05-30T10:55:17.791Z,61.30
2019-05-30T10:56:17.770Z,61.10
2019-05-30T10:57:17.758Z,61.13
2019-05-30T10:58:17.756Z,61.13
2019-05-30T10:59:17.736Z,61.13
2019-05-30T11:00:17.737Z,61.19
2019-05-30T11:01:17.721Z,60.69
2019-05-30T11:02:17.705Z,60.49
2019-05-30T11:03:17.694Z,60.80
2019-05-30T11:04:17.680Z,61.07
2019-05-30T11:05:17.679Z,60.66
2019-05-30T11:06:17.660Z,60.36
2019-05-30T11:07:17.644Z,60.24
2019-05-30T11:08:17.634Z,60.03
2019-05-30T11:09:17.625Z,60.03
2019-05-30T11:10:17.621Z,59.74
2019-05-30T11:11:17.604Z,59.03
2019-05-30T11:12:17.592Z,59.23
2019-05-30T11:13:17.577Z,59.64
2019-05-30T11:14:17.570Z,59.70
2019-05-30T11:15:17.566Z,59.91
2019-05-30T11:16:17.545Z,60.91
2019-05-30T11:17:17.534Z,60.91
2019-05-30T11:18:17.523Z,60.91
2019-05-30T11:19:17.515Z,60.91
2019-05-30T11:20:17.514Z,61.01
2019-05-30T11:21:17.489Z,61.01
2019-05-30T11:22:17.478Z,60.31
2019-05-30T11:23:17.471Z,60.64
2019-05-30T11:24:17.479Z,61.04
2019-05-30T11:25:17.444Z,61.14
2019-05-30T11:26:17.441Z,61.14
2019-05-30T11:27:17.422Z,61.47
2019-05-30T11:28:17.417Z,61.67
2019-05-30T11:29:17.399Z,61.57
2019-05-30T11:30:17.391Z,61.80
2019-05-30T11:31:17.405Z,62.07
2019-05-30T11:32:17.367Z,62.67
2019-05-30T11:33:17.360Z,62.67
2019-05-30T11:34:17.348Z,62.57
2019-05-30T11:35:17.335Z,62.67
2019-05-30T11:36:17.338Z,62.57
2019-05-30T11:37:18.901Z,62.70
2019-05-30T11:38:17.303Z,62.67
2019-05-30T11:39:17.306Z,62.90
2019-05-30T11:40:17.278Z,62.80
2019-05-30T11:41:17.278Z,62.70
2019-05-30T11:42:17.256Z,62.90
2019-05-30T11:43:17.244Z,62.90
2019-05-30T11:44:17.235Z,63.07
2019-05-30T11:45:17.223Z,63.28
2019-05-30T11:46:17.222Z,62.64
2019-05-30T11:47:17.201Z,62.64
2019-05-30T11:48:17.189Z,62.24
2019-05-30T11:49:17.192Z,62.44
2019-05-30T11:50:17.166Z,62.54
2019-05-30T11:51:17.167Z,62.11
2019-05-30T11:52:17.146Z,61.31
2019-05-30T11:53:17.132Z,61.21
2019-05-30T11:54:17.123Z,60.81
2019-05-30T11:55:17.110Z,61.04
2019-05-30T11:56:17.119Z,60.91
2019-05-30T11:57:17.086Z,61.34
2019-05-30T11:58:19.633Z,61.31
2019-05-30T11:59:17.066Z,61.64
2019-05-30T12:00:17.056Z,61.31
2019-05-30T12:01:17.055Z,61.41
2019-05-30T12:02:17.040Z,61.44
2019-05-30T12:03:17.019Z,61.54
2019-05-30T12:04:17.010Z,61.94
2019-05-30T12:05:17.000Z,61.34
2019-05-30T12:06:16.997Z,61.84
2019-05-30T12:07:16.975Z,61.74
2019-05-30T12:08:16.965Z,62.14
2019-05-30T12:09:16.959Z,61.74
2019-05-30T12:10:16.943Z,61.87
2019-05-30T12:11:16.940Z,62.30
2019-05-30T12:12:16.924Z,62.60
2019-05-30T12:13:16.910Z,63.13
2019-05-30T12:14:16.898Z,63.53
2019-05-30T12:15:16.885Z,64.04
2019-05-30T12:16:16.883Z,64.27
2019-05-30T12:17:16.864Z,64.97
2019-05-30T12:18:16.853Z,65.34
2019-05-30T12:19:16.848Z,65.07
2019-05-30T12:20:16.832Z,65.27
2019-05-30T12:21:16.828Z,65.17
2019-05-30T12:22:16.807Z,65.37
2019-05-30T12:23:16.796Z,64.97
2019-05-30T12:24:16.785Z,64.57
2019-05-30T12:25:16.775Z,64.77
2019-05-30T12:26:16.773Z,64.67
2019-05-30T12:27:16.753Z,65.57
2019-05-30T12:28:16.743Z,65.17
2019-05-30T12:29:16.734Z,65.47
2019-05-30T12:30:16.723Z,65.57
2019-05-30T12:31:16.717Z,65.44
2019-05-30T12:32:16.697Z,64.74
2019-05-30T12:33:16.685Z,65.04
2019-05-30T12:34:16.677Z,64.54
2019-05-30T12:35:16.665Z,64.64
2019-05-30T12:36:16.664Z,64.74
2019-05-30T12:37:16.647Z,64.54
2019-05-30T12:38:16.630Z,64.14
2019-05-30T12:39:16.618Z,64.14
2019-05-30T12:40:16.611Z,64.94
2019-05-30T12:41:16.613Z,64.94
2019-05-30T12:42:16.587Z,64.84
2019-05-30T12:43:16.576Z,65.04
2019-05-30T12:44:16.562Z,64.04
2019-05-30T12:45:16.552Z,63.84
2019-05-30T12:46:16.540Z,63.81
2019-05-30T12:47:16.538Z,63.70
2019-05-30T12:48:16.516Z,63.90
2019-05-30T12:49:16.507Z,63.47
2019-05-30T12:50:16.889Z,63.37
2019-05-30T12:51:16.483Z,63.04
2019-05-30T12:52:16.484Z,63.64
2019-05-30T12:53:16.463Z,63.64
2019-05-30T12:54:16.472Z,62.94
2019-05-30T12:55:16.439Z,63.45
2019-05-30T12:56:16.429Z,63.34
2019-05-30T12:57:16.427Z,62.24
2019-05-30T12:58:16.404Z,62.54
2019-05-30T12:59:16.395Z,62.81
2019-05-30T13:00:18.839Z,62.11
2019-05-30T13:01:16.371Z,62.24
2019-05-30T13:02:16.370Z,62.54
2019-05-30T13:03:16.349Z,61.94
2019-05-30T13:04:16.339Z,62.14
2019-05-30T13:05:16.329Z,62.54
2019-05-30T13:06:16.318Z,62.64
2019-05-30T13:07:16.339Z,63.04
2019-05-30T13:08:21.708Z,62.54
2019-05-30T13:09:17.282Z,62.57
2019-05-30T13:10:16.271Z,62.77
2019-05-30T13:11:16.264Z,62.77
2019-05-30T13:12:16.278Z,63.78
2019-05-30T13:13:16.237Z,63.28
2019-05-30T13:14:16.230Z,62.87
2019-05-30T13:15:16.219Z,62.97
2019-05-30T13:16:16.212Z,63.47
2019-05-30T13:17:16.204Z,63.28
2019-05-30T13:18:16.185Z,63.00
2019-05-30T13:19:16.170Z,63.07
2019-05-30T13:20:16.161Z,63.07
2019-05-30T13:21:16.151Z,63.07
2019-05-30T13:22:16.147Z,63.17
2019-05-30T13:23:16.127Z,63.47
2019-05-30T13:24:16.116Z,63.57
2019-05-30T13:25:16.106Z,63.45
2019-05-30T13:26:16.094Z,63.67
2019-05-30T13:27:16.095Z,63.64
2019-05-30T13:28:16.076Z,63.24
2019-05-30T13:29:16.062Z,63.45
2019-05-30T13:30:16.050Z,63.24
2019-05-30T13:31:16.038Z,63.78
2019-05-30T13:32:16.042Z,63.45
2019-05-30T13:33:16.015Z,63.24
2019-05-30T13:34:16.003Z,63.24
2019-05-30T13:35:15.992Z,63.95
2019-05-30T13:36:15.981Z,63.37
2019-05-30T13:37:15.988Z,63.78
2019-05-30T13:38:26.021Z,64.68
2019-05-30T13:39:16.950Z,66.11
2019-05-30T13:40:24.815Z,67.52
2019-05-30T13:41:16.924Z,68.82
2019-05-30T13:42:15.918Z,69.32
2019-05-30T13:43:15.912Z,69.62
2019-05-30T13:44:15.890Z,68.76
2019-05-30T13:45:15.878Z,69.53
2019-05-30T13:46:15.870Z,69.46
2019-05-30T13:47:15.858Z,69.46
2019-05-30T13:48:15.859Z,69.96
2019-05-30T13:49:15.836Z,71.06
2019-05-30T13:50:15.845Z,70.26
2019-05-30T13:51:15.814Z,69.49
2019-05-30T13:52:15.805Z,69.29
2019-05-30T13:53:15.801Z,69.92
2019-05-30T13:54:15.781Z,70.53
2019-05-30T13:55:15.767Z,70.63
2019-05-30T13:56:15.756Z,70.43
2019-05-30T13:57:15.745Z,70.63
2019-05-30T13:58:15.744Z,71.03
2019-05-30T13:59:15.724Z,71.53
2019-05-30T14:00:15.719Z,71.13
2019-05-30T14:01:15.713Z,71.13
2019-05-30T14:02:15.691Z,71.53
2019-05-30T14:03:15.687Z,71.03
2019-05-30T14:04:15.674Z,70.93
2019-05-30T14:05:15.655Z,71.03
2019-05-30T14:06:15.643Z,71.53
2019-05-30T14:07:15.638Z,72.00
2019-05-30T14:08:16.728Z,70.79
2019-05-30T14:09:15.609Z,70.50
2019-05-30T14:10:15.600Z,70.50
2019-05-30T14:11:15.591Z,70.29
2019-05-30T14:12:15.575Z,70.09
2019-05-30T14:13:15.573Z,70.19
2019-05-30T14:14:15.553Z,70.09
2019-05-30T14:15:15.544Z,70.19
2019-05-30T14:16:15.533Z,69.49
2019-05-30T14:17:15.521Z,69.69
2019-05-30T14:18:15.522Z,70.06
2019-05-30T14:19:15.499Z,70.29
2019-05-30T14:20:15.488Z,69.39
2019-05-30T14:21:15.473Z,69.69
2019-05-30T14:22:15.466Z,69.89
